sensor_id;sensor_type;location;lat;lon;timestamp;pressure;altitude;pressure_sealevel;temperature;humidity
62634;BME280;48704;50.534;6.442;2023-02-16T00:02:22;96341.91;;;4.55;100.00
62634;BME280;48704;50.534;6.442;2023-02-16T00:04:48;96334.72;;;4.38;100.00
62634;BME280;48704;50.534;6.442;2023-02-16T00:07:13;96328.47;;;4.34;100.00
62634;BME280;48704;50.534;6.442;2023-02-16T00:09:38;96335.56;;;4.35;100.00
62634;BME280;48704;50.534;6.442;2023-02-16T00:12:15;96334.09;;;4.27;100.00
62634;BME280;48704;50.534;6.442;2023-02-16T00:15:01;96338.91;;;4.23;100.00
62634;BME280;48704;50.534;6.442;2023-02-16T00:17:26;96334.94;;;4.24;100.00
62634;BME280;48704;50.534;6.442;2023-02-16T00:19:51;96336.66;;;4.14;100.00
62634;BME280;48704;50.534;6.442;2023-02-16T00:22:17;96341.44;;;4.10;100.00
62634;BME280;48704;50.534;6.442;2023-02-16T00:24:42;96340.81;;;4.02;100.00
62634;BME280;48704;50.534;6.442;2023-02-16T00:27:11;96341.25;;;3.97;100.00
62634;BME280;48704;50.534;6.442;2023-02-16T00:29:37;96343.66;;;3.95;100.00
62634;BME280;48704;50.534;6.442;2023-02-16T00:32:04;96346.41;;;3.95;100.00
62634;BME280;48704;50.534;6.442;2023-02-16T00:37:01;96346.66;;;3.78;100.00
62634;BME280;48704;50.534;6.442;2023-02-16T00:39:27;96342.69;;;3.79;100.00
62634;BME280;48704;50.534;6.442;2023-02-16T00:42:31;96337.22;;;3.75;100.00
62634;BME280;48704;50.534;6.442;2023-02-16T00:44:51;96338.13;;;3.68;100.00
62634;BME280;48704;50.534;6.442;2023-02-16T00:47:24;96331.84;;;3.68;100.00
62634;BME280;48704;50.534;6.442;2023-02-16T00:49:52;96326.69;;;3.70;100.00
62634;BME280;48704;50.534;6.442;2023-02-16T00:54:50;96319.25;;;3.67;100.00
62634;BME280;48704;50.534;6.442;2023-02-16T00:57:17;96316.13;;;3.65;100.00
62634;BME280;48704;50.534;6.442;2023-02-16T00:59:43;96323.22;;;3.66;100.00
62634;BME280;48704;50.534;6.442;2023-02-16T01:02:09;96314.63;;;3.60;100.00
62634;BME280;48704;50.534;6.442;2023-02-16T01:04:34;96321.28;;;3.63;100.00
62634;BME280;48704;50.534;6.442;2023-02-16T01:06:59;96313.47;;;3.58;100.00
62634;BME280;48704;50.534;6.442;2023-02-16T01:09:43;96312.31;;;3.55;100.00
62634;BME280;48704;50.534;6.442;2023-02-16T01:12:28;96306.22;;;3.41;100.00
62634;BME280;48704;50.534;6.442;2023-02-16T01:14:54;96304.41;;;3.30;100.00
62634;BME280;48704;50.534;6.442;2023-02-16T01:17:19;96316.78;;;3.46;100.00
62634;BME280;48704;50.534;6.442;2023-02-16T01:19:44;96304.47;;;3.54;100.00
62634;BME280;48704;50.534;6.442;2023-02-16T01:22:09;96305.66;;;3.53;100.00
62634;BME280;48704;50.534;6.442;2023-02-16T01:24:35;96309.25;;;3.50;100.00
62634;BME280;48704;50.534;6.442;2023-02-16T01:27:00;96319.16;;;3.44;100.00
62634;BME280;48704;50.534;6.442;2023-02-16T01:29:26;96310.97;;;3.36;100.00
62634;BME280;48704;50.534;6.442;2023-02-16T01:31:51;96313.03;;;3.32;100.00
62634;BME280;48704;50.534;6.442;2023-02-16T01:34:16;96303.19;;;3.31;100.00
62634;BME280;48704;50.534;6.442;2023-02-16T01:36:44;96298.41;;;3.35;100.00
62634;BME280;48704;50.534;6.442;2023-02-16T01:39:17;96301.63;;;3.30;100.00
62634;BME280;48704;50.534;6.442;2023-02-16T01:41:58;96300.06;;;3.29;100.00
62634;BME280;48704;50.534;6.442;2023-02-16T01:44:28;96302.47;;;3.27;100.00
62634;BME280;48704;50.534;6.442;2023-02-16T01:49:43;96300.25;;;3.15;100.00
62634;BME280;48704;50.534;6.442;2023-02-16T01:52:33;96295.09;;;3.17;100.00
62634;BME280;48704;50.534;6.442;2023-02-16T01:55:05;96285.00;;;3.07;100.00
62634;BME280;48704;50.534;6.442;2023-02-16T01:57:51;96286.16;;;3.10;100.00
62634;BME280;48704;50.534;6.442;2023-02-16T02:00:27;96292.38;;;3.14;100.00
62634;BME280;48704;50.534;6.442;2023-02-16T02:03:00;96289.50;;;3.24;100.00
62634;BME280;48704;50.534;6.442;2023-02-16T02:05:46;96280.50;;;3.20;100.00
62634;BME280;48704;50.534;6.442;2023-02-16T02:08:20;96281.25;;;3.24;100.00
62634;BME280;48704;50.534;6.442;2023-02-16T02:13:30;96278.25;;;3.12;100.00
62634;BME280;48704;50.534;6.442;2023-02-16T02:15:57;96279.78;;;3.16;100.00
62634;BME280;48704;50.534;6.442;2023-02-16T02:18:23;96280.97;;;3.15;100.00
62634;BME280;48704;50.534;6.442;2023-02-16T02:28:50;96265.50;;;2.94;100.00
62634;BME280;48704;50.534;6.442;2023-02-16T02:34:31;96260.94;;;3.11;100.00
62634;BME280;48704;50.534;6.442;2023-02-16T02:37:09;96263.19;;;2.89;100.00
62634;BME280;48704;50.534;6.442;2023-02-16T02:39:58;96263.09;;;2.62;100.00
62634;BME280;48704;50.534;6.442;2023-02-16T02:42:57;96269.28;;;2.70;100.00
62634;BME280;48704;50.534;6.442;2023-02-16T02:45:35;96257.53;;;2.66;100.00
62634;BME280;48704;50.534;6.442;2023-02-16T02:48:02;96257.41;;;2.80;100.00
62634;BME280;48704;50.534;6.442;2023-02-16T02:50:50;96251.94;;;2.77;100.00
62634;BME280;48704;50.534;6.442;2023-02-16T02:53:39;96248.97;;;2.60;100.00
62634;BME280;48704;50.534;6.442;2023-02-16T02:56:06;96247.31;;;2.66;100.00
62634;BME280;48704;50.534;6.442;2023-02-16T02:58:56;96231.50;;;2.74;100.00
62634;BME280;48704;50.534;6.442;2023-02-16T03:01:46;96232.44;;;2.60;100.00
62634;BME280;48704;50.534;6.442;2023-02-16T03:04:16;96232.09;;;2.58;100.00
62634;BME280;48704;50.534;6.442;2023-02-16T03:06:46;96229.09;;;2.80;100.00
62634;BME280;48704;50.534;6.442;2023-02-16T03:09:14;96222.31;;;2.88;100.00
62634;BME280;48704;50.534;6.442;2023-02-16T03:11:41;96227.25;;;3.00;100.00
62634;BME280;48704;50.534;6.442;2023-02-16T03:14:34;96224.06;;;3.05;100.00
62634;BME280;48704;50.534;6.442;2023-02-16T03:17:06;96227.34;;;3.23;100.00
62634;BME280;48704;50.534;6.442;2023-02-16T03:19:51;96220.50;;;3.35;100.00
62634;BME280;48704;50.534;6.442;2023-02-16T03:22:35;96222.13;;;3.32;100.00
62634;BME280;48704;50.534;6.442;2023-02-16T03:25:26;96220.50;;;3.35;100.00
62634;BME280;48704;50.534;6.442;2023-02-16T03:28:12;96215.06;;;3.31;100.00
62634;BME280;48704;50.534;6.442;2023-02-16T03:30:57;96204.69;;;3.39;100.00
62634;BME280;48704;50.534;6.442;2023-02-16T03:33:24;96217.31;;;3.36;100.00
62634;BME280;48704;50.534;6.442;2023-02-16T03:35:50;96205.47;;;3.40;100.00
62634;BME280;48704;50.534;6.442;2023-02-16T03:38:16;96213.28;;;3.45;100.00
62634;BME280;48704;50.534;6.442;2023-02-16T03:40:42;96211.53;;;3.31;100.00
62634;BME280;48704;50.534;6.442;2023-02-16T03:43:08;96218.09;;;3.37;100.00
62634;BME280;48704;50.534;6.442;2023-02-16T03:45:35;96204.31;;;3.37;100.00
62634;BME280;48704;50.534;6.442;2023-02-16T03:48:01;96207.34;;;3.46;100.00
62634;BME280;48704;50.534;6.442;2023-02-16T03:50:28;96208.22;;;3.40;100.00
62634;BME280;48704;50.534;6.442;2023-02-16T03:52:54;96200.78;;;3.36;100.00
62634;BME280;48704;50.534;6.442;2023-02-16T03:58:06;96215.06;;;3.31;100.00
62634;BME280;48704;50.534;6.442;2023-02-16T04:00:33;96207.09;;;3.37;100.00
62634;BME280;48704;50.534;6.442;2023-02-16T04:02:59;96202.25;;;3.45;100.00
62634;BME280;48704;50.534;6.442;2023-02-16T04:05:24;96208.97;;;3.44;100.00
62634;BME280;48704;50.534;6.442;2023-02-16T04:07:49;96206.94;;;3.48;100.00
62634;BME280;48704;50.534;6.442;2023-02-16T04:10:15;96212.19;;;3.39;100.00
62634;BME280;48704;50.534;6.442;2023-02-16T04:12:40;96211.09;;;3.32;100.00
62634;BME280;48704;50.534;6.442;2023-02-16T04:15:19;96215.34;;;3.37;100.00
62634;BME280;48704;50.534;6.442;2023-02-16T04:17:45;96214.19;;;3.34;100.00
62634;BME280;48704;50.534;6.442;2023-02-16T04:20:13;96212.31;;;3.31;100.00
62634;BME280;48704;50.534;6.442;2023-02-16T04:22:39;96210.75;;;3.30;100.00
62634;BME280;48704;50.534;6.442;2023-02-16T04:25:05;96209.91;;;3.33;100.00
62634;BME280;48704;50.534;6.442;2023-02-16T04:27:31;96215.88;;;3.28;100.00
62634;BME280;48704;50.534;6.442;2023-02-16T04:29:56;96213.59;;;3.23;100.00
62634;BME280;48704;50.534;6.442;2023-02-16T04:32:21;96217.50;;;3.26;100.00
62634;BME280;48704;50.534;6.442;2023-02-16T04:34:47;96219.16;;;3.20;100.00
62634;BME280;48704;50.534;6.442;2023-02-16T04:37:12;96221.63;;;3.11;100.00
62634;BME280;48704;50.534;6.442;2023-02-16T04:39:37;96228.69;;;3.12;100.00
62634;BME280;48704;50.534;6.442;2023-02-16T04:42:03;96225.97;;;3.08;100.00
62634;BME280;48704;50.534;6.442;2023-02-16T04:44:28;96229.59;;;3.01;100.00
62634;BME280;48704;50.534;6.442;2023-02-16T04:46:53;96224.22;;;2.94;100.00
62634;BME280;48704;50.534;6.442;2023-02-16T04:49:19;96230.56;;;2.88;100.00
62634;BME280;48704;50.534;6.442;2023-02-16T04:51:44;96221.94;;;2.86;100.00
62634;BME280;48704;50.534;6.442;2023-02-16T04:54:09;96227.91;;;2.81;100.00
62634;BME280;48704;50.534;6.442;2023-02-16T04:56:35;96222.81;;;2.79;100.00
62634;BME280;48704;50.534;6.442;2023-02-16T04:59:00;96230.25;;;2.82;100.00
62634;BME280;48704;50.534;6.442;2023-02-16T05:01:27;96224.38;;;2.80;100.00
62634;BME280;48704;50.534;6.442;2023-02-16T05:03:53;96213.31;;;2.84;100.00
62634;BME280;48704;50.534;6.442;2023-02-16T05:06:18;96215.78;;;2.75;100.00
62634;BME280;48704;50.534;6.442;2023-02-16T05:08:44;96216.69;;;2.64;100.00
62634;BME280;48704;50.534;6.442;2023-02-16T05:11:09;96217.50;;;2.61;100.00
62634;BME280;48704;50.534;6.442;2023-02-16T05:13:57;96202.28;;;2.53;100.00
62634;BME280;48704;50.534;6.442;2023-02-16T05:16:41;96211.72;;;2.52;100.00
62634;BME280;48704;50.534;6.442;2023-02-16T05:19:07;96216.19;;;2.39;100.00
62634;BME280;48704;50.534;6.442;2023-02-16T05:21:32;96218.19;;;2.35;100.00
62634;BME280;48704;50.534;6.442;2023-02-16T05:23:59;96216.69;;;2.27;100.00
62634;BME280;48704;50.534;6.442;2023-02-16T05:26:25;96219.84;;;2.25;100.00
62634;BME280;48704;50.534;6.442;2023-02-16T05:28:51;96222.19;;;2.27;100.00
62634;BME280;48704;50.534;6.442;2023-02-16T05:31:16;96218.69;;;2.23;100.00
62634;BME280;48704;50.534;6.442;2023-02-16T05:33:41;96218.69;;;2.23;100.00
62634;BME280;48704;50.534;6.442;2023-02-16T05:36:07;96210.91;;;2.18;100.00
62634;BME280;48704;50.534;6.442;2023-02-16T05:38:32;96218.41;;;2.14;100.00
62634;BME280;48704;50.534;6.442;2023-02-16T05:40:58;96219.59;;;2.13;100.00
62634;BME280;48704;50.534;6.442;2023-02-16T05:43:23;96232.91;;;2.18;100.00
62634;BME280;48704;50.534;6.442;2023-02-16T05:45:49;96225.81;;;2.20;100.00
62634;BME280;48704;50.534;6.442;2023-02-16T05:48:14;96223.38;;;2.26;100.00
62634;BME280;48704;50.534;6.442;2023-02-16T05:50:39;96224.94;;;2.27;100.00
62634;BME280;48704;50.534;6.442;2023-02-16T05:53:04;96234.50;;;2.15;100.00
62634;BME280;48704;50.534;6.442;2023-02-16T05:55:30;96224.25;;;2.19;100.00
62634;BME280;48704;50.534;6.442;2023-02-16T05:57:55;96225.41;;;2.22;100.00
62634;BME280;48704;50.534;6.442;2023-02-16T06:00:20;96228.50;;;2.24;100.00
62634;BME280;48704;50.534;6.442;2023-02-16T06:02:45;96224.94;;;2.27;100.00
62634;BME280;48704;50.534;6.442;2023-02-16T06:05:11;96230.38;;;2.34;100.00
62634;BME280;48704;50.534;6.442;2023-02-16T06:07:36;96231.94;;;2.35;100.00
62634;BME280;48704;50.534;6.442;2023-02-16T06:10:02;96234.25;;;2.40;100.00
62634;BME280;48704;50.534;6.442;2023-02-16T06:12:27;96233.88;;;2.38;100.00
62634;BME280;48704;50.534;6.442;2023-02-16T06:14:53;96224.03;;;2.41;100.00
62634;BME280;48704;50.534;6.442;2023-02-16T06:17:20;96227.06;;;2.53;100.00
62634;BME280;48704;50.534;6.442;2023-02-16T06:19:45;96225.44;;;2.56;100.00
62634;BME280;48704;50.534;6.442;2023-02-16T06:22:10;96223.84;;;2.58;100.00
62634;BME280;48704;50.534;6.442;2023-02-16T06:24:35;96227.00;;;2.57;100.00
62634;BME280;48704;50.534;6.442;2023-02-16T06:27:02;96227.69;;;2.64;100.00
62634;BME280;48704;50.534;6.442;2023-02-16T06:29:28;96221.31;;;2.71;100.00
62634;BME280;48704;50.534;6.442;2023-02-16T06:31:53;96221.28;;;2.75;100.00
62634;BME280;48704;50.534;6.442;2023-02-16T06:34:18;96226.84;;;2.71;100.00
62634;BME280;48704;50.534;6.442;2023-02-16T06:36:43;96225.28;;;2.70;100.00
62634;BME280;48704;50.534;6.442;2023-02-16T06:39:09;96230.28;;;2.79;100.00
62634;BME280;48704;50.534;6.442;2023-02-16T06:41:34;96228.19;;;2.90;100.00
62634;BME280;48704;50.534;6.442;2023-02-16T06:44:06;96236.72;;;2.99;100.00
62634;BME280;48704;50.534;6.442;2023-02-16T06:46:32;96233.63;;;2.97;100.00
62634;BME280;48704;50.534;6.442;2023-02-16T06:48:58;96241.34;;;3.06;100.00
62634;BME280;48704;50.534;6.442;2023-02-16T06:51:23;96239.19;;;3.20;100.00
62634;BME280;48704;50.534;6.442;2023-02-16T06:53:49;96234.53;;;3.17;100.00
62634;BME280;48704;50.534;6.442;2023-02-16T06:56:14;96242.78;;;3.17;100.00
62634;BME280;48704;50.534;6.442;2023-02-16T06:58:40;96233.31;;;3.18;100.00
62634;BME280;48704;50.534;6.442;2023-02-16T07:01:05;96237.19;;;3.24;100.00
62634;BME280;48704;50.534;6.442;2023-02-16T07:03:30;96248.94;;;3.28;100.00
62634;BME280;48704;50.534;6.442;2023-02-16T07:05:56;96244.16;;;3.32;100.00
62634;BME280;48704;50.534;6.442;2023-02-16T07:08:21;96245.22;;;3.39;100.00
62634;BME280;48704;50.534;6.442;2023-02-16T07:10:47;96247.91;;;3.46;100.00
62634;BME280;48704;50.534;6.442;2023-02-16T07:13:12;96236.03;;;3.49;100.00
62634;BME280;48704;50.534;6.442;2023-02-16T07:15:38;96244.56;;;3.58;100.00
62634;BME280;48704;50.534;6.442;2023-02-16T07:18:04;96246.88;;;3.63;100.00
62634;BME280;48704;50.534;6.442;2023-02-16T07:20:29;96244.94;;;3.60;100.00
62634;BME280;48704;50.534;6.442;2023-02-16T07:22:54;96238.31;;;3.81;100.00
62634;BME280;48704;50.534;6.442;2023-02-16T07:25:20;96241.44;;;3.83;100.00
62634;BME280;48704;50.534;6.442;2023-02-16T07:27:45;96236.81;;;3.76;100.00
62634;BME280;48704;50.534;6.442;2023-02-16T07:30:11;96238.97;;;3.88;100.00
62634;BME280;48704;50.534;6.442;2023-02-16T07:32:37;96251.00;;;4.01;100.00
62634;BME280;48704;50.534;6.442;2023-02-16T07:35:03;96249.44;;;4.00;100.00
62634;BME280;48704;50.534;6.442;2023-02-16T07:37:29;96243.09;;;4.03;100.00
62634;BME280;48704;50.534;6.442;2023-02-16T07:39:54;96244.88;;;4.14;100.00
62634;BME280;48704;50.534;6.442;2023-02-16T07:42:20;96244.66;;;4.05;100.00
62634;BME280;48704;50.534;6.442;2023-02-16T07:44:45;96243.19;;;3.96;100.00
62634;BME280;48704;50.534;6.442;2023-02-16T07:47:10;96238.88;;;3.95;100.00
62634;BME280;48704;50.534;6.442;2023-02-16T07:49:37;96238.41;;;4.00;100.00
62634;BME280;48704;50.534;6.442;2023-02-16T07:52:03;96235.16;;;4.06;100.00
62634;BME280;48704;50.534;6.442;2023-02-16T07:54:30;96240.97;;;4.11;100.00
62634;BME280;48704;50.534;6.442;2023-02-16T07:56:55;96237.97;;;4.25;100.00
62634;BME280;48704;50.534;6.442;2023-02-16T07:59:21;96243.66;;;4.15;100.00
62634;BME280;48704;50.534;6.442;2023-02-16T08:01:46;96238.75;;;4.26;100.00
62634;BME280;48704;50.534;6.442;2023-02-16T08:04:11;96237.00;;;4.35;100.00
62634;BME280;48704;50.534;6.442;2023-02-16T08:06:36;96246.44;;;4.38;100.00
62634;BME280;48704;50.534;6.442;2023-02-16T08:09:02;96249.41;;;4.47;100.00
62634;BME280;48704;50.534;6.442;2023-02-16T08:11:27;96253.94;;;4.57;100.00
62634;BME280;48704;50.534;6.442;2023-02-16T08:13:52;96249.50;;;4.63;100.00
62634;BME280;48704;50.534;6.442;2023-02-16T08:16:23;96249.44;;;4.67;100.00
62634;BME280;48704;50.534;6.442;2023-02-16T08:18:49;96244.94;;;4.77;100.00
62634;BME280;48704;50.534;6.442;2023-02-16T08:21:27;96233.03;;;4.80;100.00
62634;BME280;48704;50.534;6.442;2023-02-16T08:23:55;96239.88;;;4.91;100.00
62634;BME280;48704;50.534;6.442;2023-02-16T08:26:22;96244.50;;;4.98;100.00
62634;BME280;48704;50.534;6.442;2023-02-16T08:28:48;96239.47;;;5.13;100.00
62634;BME280;48704;50.534;6.442;2023-02-16T08:31:25;96233.81;;;5.20;100.00
62634;BME280;48704;50.534;6.442;2023-02-16T08:33:53;96246.31;;;5.24;100.00
62634;BME280;48704;50.534;6.442;2023-02-16T08:36:24;96231.06;;;5.36;100.00
62634;BME280;48704;50.534;6.442;2023-02-16T08:38:50;96241.91;;;5.47;100.00
62634;BME280;48704;50.534;6.442;2023-02-16T08:41:22;96230.16;;;5.59;100.00
62634;BME280;48704;50.534;6.442;2023-02-16T08:43:48;96231.03;;;5.72;100.00
62634;BME280;48704;50.534;6.442;2023-02-16T08:46:14;96223.78;;;5.78;100.00
62634;BME280;48704;50.534;6.442;2023-02-16T08:48:40;96232.44;;;5.80;100.00
62634;BME280;48704;50.534;6.442;2023-02-16T08:51:12;96230.59;;;5.93;100.00
62634;BME280;48704;50.534;6.442;2023-02-16T08:53:38;96239.97;;;5.96;100.00
62634;BME280;48704;50.534;6.442;2023-02-16T08:56:03;96236.69;;;6.01;100.00
62634;BME280;48704;50.534;6.442;2023-02-16T08:58:29;96238.34;;;5.98;100.00
62634;BME280;48704;50.534;6.442;2023-02-16T09:00:55;96241.47;;;6.00;100.00
62634;BME280;48704;50.534;6.442;2023-02-16T09:03:21;96231.09;;;6.04;100.00
62634;BME280;48704;50.534;6.442;2023-02-16T09:05:49;96244.31;;;6.13;100.00
62634;BME280;48704;50.534;6.442;2023-02-16T09:08:15;96230.56;;;6.10;100.00
62634;BME280;48704;50.534;6.442;2023-02-16T09:10:41;96241.13;;;6.15;100.00
62634;BME280;48704;50.534;6.442;2023-02-16T09:13:07;96240.13;;;6.37;100.00
62634;BME280;48704;50.534;6.442;2023-02-16T09:15:39;96240.91;;;6.54;100.00
62634;BME280;48704;50.534;6.442;2023-02-16T09:18:06;96235.66;;;6.72;100.00
62634;BME280;48704;50.534;6.442;2023-02-16T09:20:36;96233.34;;;7.00;100.00
62634;BME280;48704;50.534;6.442;2023-02-16T09:23:01;96238.25;;;7.21;100.00
62634;BME280;48704;50.534;6.442;2023-02-16T09:25:26;96227.16;;;7.21;100.00
62634;BME280;48704;50.534;6.442;2023-02-16T09:27:51;96228.09;;;7.44;100.00
62634;BME280;48704;50.534;6.442;2023-02-16T09:30:17;96232.13;;;7.68;100.00
62634;BME280;48704;50.534;6.442;2023-02-16T09:32:42;96232.78;;;7.59;100.00
62634;BME280;48704;50.534;6.442;2023-02-16T09:35:07;96243.16;;;7.43;100.00
62634;BME280;48704;50.534;6.442;2023-02-16T09:37:33;96242.81;;;7.28;100.00
62634;BME280;48704;50.534;6.442;2023-02-16T09:39:58;96241.72;;;7.25;100.00
62634;BME280;48704;50.534;6.442;2023-02-16T09:42:52;96237.78;;;7.10;100.00
62634;BME280;48704;50.534;6.442;2023-02-16T09:45:21;96240.44;;;7.01;100.00
62634;BME280;48704;50.534;6.442;2023-02-16T09:47:49;96235.09;;;6.94;100.00
62634;BME280;48704;50.534;6.442;2023-02-16T09:50:19;96241.59;;;6.87;100.00
62634;BME280;48704;50.534;6.442;2023-02-16T09:52:55;96239.59;;;6.88;100.00
62634;BME280;48704;50.534;6.442;2023-02-16T09:55:24;96249.56;;;6.85;100.00
62634;BME280;48704;50.534;6.442;2023-02-16T10:03:22;96261.44;;;6.69;100.00
62634;BME280;48704;50.534;6.442;2023-02-16T10:08:43;96277.06;;;6.63;100.00
62634;BME280;48704;50.534;6.442;2023-02-16T10:11:16;96271.53;;;6.63;100.00
62634;BME280;48704;50.534;6.442;2023-02-16T10:16:56;96281.03;;;6.62;100.00
62634;BME280;48704;50.534;6.442;2023-02-16T10:19:28;96273.94;;;6.61;100.00
62634;BME280;48704;50.534;6.442;2023-02-16T10:21:57;96281.72;;;6.66;100.00
62634;BME280;48704;50.534;6.442;2023-02-16T10:24:26;96307.31;;;6.70;100.00
62634;BME280;48704;50.534;6.442;2023-02-16T10:27:01;96286.50;;;6.66;100.00
62634;BME280;48704;50.534;6.442;2023-02-16T10:29:27;96282.59;;;6.63;100.00
62634;BME280;48704;50.534;6.442;2023-02-16T10:37:45;96291.78;;;6.60;100.00
62634;BME280;48704;50.534;6.442;2023-02-16T10:42:51;96283.91;;;6.59;100.00
62634;BME280;48704;50.534;6.442;2023-02-16T10:45:34;96296.97;;;6.58;100.00
62634;BME280;48704;50.534;6.442;2023-02-16T10:48:01;96293.84;;;6.56;100.00
62634;BME280;48704;50.534;6.442;2023-02-16T10:50:40;96291.44;;;6.58;100.00
62634;BME280;48704;50.534;6.442;2023-02-16T10:53:20;96286.38;;;6.69;100.00
62634;BME280;48704;50.534;6.442;2023-02-16T10:55:45;96289.25;;;6.66;100.00
62634;BME280;48704;50.534;6.442;2023-02-16T10:58:26;96300.16;;;6.57;100.00
62634;BME280;48704;50.534;6.442;2023-02-16T11:03:49;96289.69;;;6.64;100.00
62634;BME280;48704;50.534;6.442;2023-02-16T11:06:21;96292.69;;;6.70;100.00
62634;BME280;48704;50.534;6.442;2023-02-16T11:08:57;96286.28;;;6.73;100.00
62634;BME280;48704;50.534;6.442;2023-02-16T11:11:30;96275.13;;;6.77;100.00
62634;BME280;48704;50.534;6.442;2023-02-16T11:14:01;96270.25;;;6.81;100.00
62634;BME280;48704;50.534;6.442;2023-02-16T11:16:27;96260.06;;;6.78;100.00
62634;BME280;48704;50.534;6.442;2023-02-16T11:18:58;96253.16;;;6.69;100.00
62634;BME280;48704;50.534;6.442;2023-02-16T11:21:42;96270.66;;;6.66;100.00
62634;BME280;48704;50.534;6.442;2023-02-16T11:24:11;96259.38;;;6.74;100.00
62634;BME280;48704;50.534;6.442;2023-02-16T11:26:37;96257.44;;;6.87;100.00
62634;BME280;48704;50.534;6.442;2023-02-16T11:29:17;96258.50;;;7.05;100.00
62634;BME280;48704;50.534;6.442;2023-02-16T11:31:43;96251.09;;;7.15;100.00
62634;BME280;48704;50.534;6.442;2023-02-16T11:36:36;96260.63;;;7.14;100.00
62634;BME280;48704;50.534;6.442;2023-02-16T11:39:14;96254.06;;;7.08;100.00
62634;BME280;48704;50.534;6.442;2023-02-16T11:41:47;96256.34;;;7.26;100.00
62634;BME280;48704;50.534;6.442;2023-02-16T11:44:28;96253.88;;;7.15;100.00
62634;BME280;48704;50.534;6.442;2023-02-16T11:46:55;96244.97;;;7.36;100.00
62634;BME280;48704;50.534;6.442;2023-02-16T11:49:31;96262.47;;;7.33;100.00
62634;BME280;48704;50.534;6.442;2023-02-16T11:51:57;96232.97;;;7.40;100.00
62634;BME280;48704;50.534;6.442;2023-02-16T11:54:23;96226.22;;;7.41;100.00
62634;BME280;48704;50.534;6.442;2023-02-16T11:57:06;96229.22;;;7.59;100.00
62634;BME280;48704;50.534;6.442;2023-02-16T11:59:38;96221.91;;;7.65;100.00
62634;BME280;48704;50.534;6.442;2023-02-16T12:02:23;96225.69;;;7.71;100.00
62634;BME280;48704;50.534;6.442;2023-02-16T12:05:17;96219.00;;;7.56;100.00
62634;BME280;48704;50.534;6.442;2023-02-16T12:26:56;96223.00;;;7.55;100.00
62634;BME280;48704;50.534;6.442;2023-02-16T12:35:52;96214.00;;;7.51;100.00
62634;BME280;48704;50.534;6.442;2023-02-16T12:44:39;96197.13;;;7.20;100.00
62634;BME280;48704;50.534;6.442;2023-02-16T12:47:12;96189.59;;;7.20;100.00
62634;BME280;48704;50.534;6.442;2023-02-16T12:49:52;96205.56;;;7.29;100.00
62634;BME280;48704;50.534;6.442;2023-02-16T12:52:23;96208.22;;;7.45;100.00
62634;BME280;48704;50.534;6.442;2023-02-16T12:54:55;96196.50;;;7.54;100.00
62634;BME280;48704;50.534;6.442;2023-02-16T12:57:25;96190.41;;;7.59;100.00
62634;BME280;48704;50.534;6.442;2023-02-16T12:59:56;96185.06;;;7.77;100.00
62634;BME280;48704;50.534;6.442;2023-02-16T13:02:26;96181.28;;;7.96;100.00
62634;BME280;48704;50.534;6.442;2023-02-16T13:05:18;96185.38;;;8.04;100.00
62634;BME280;48704;50.534;6.442;2023-02-16T13:07:46;96180.97;;;8.29;100.00
62634;BME280;48704;50.534;6.442;2023-02-16T13:10:23;96175.13;;;9.05;100.00
62634;BME280;48704;50.534;6.442;2023-02-16T13:12:59;96175.03;;;9.80;100.00
62634;BME280;48704;50.534;6.442;2023-02-16T13:15:34;96179.31;;;10.12;100.00
62634;BME280;48704;50.534;6.442;2023-02-16T13:18:04;96174.09;;;10.41;100.00
62634;BME280;48704;50.534;6.442;2023-02-16T13:20:38;96187.09;;;10.26;100.00
62634;BME280;48704;50.534;6.442;2023-02-16T13:42:49;96151.28;;;8.95;100.00
62634;BME280;48704;50.534;6.442;2023-02-16T13:45:20;96152.38;;;8.76;100.00
62634;BME280;48704;50.534;6.442;2023-02-16T13:47:47;96140.22;;;9.04;100.00
62634;BME280;48704;50.534;6.442;2023-02-16T13:50:30;96142.56;;;8.84;100.00
62634;BME280;48704;50.534;6.442;2023-02-16T13:53:09;96131.41;;;9.05;100.00
62634;BME280;48704;50.534;6.442;2023-02-16T13:55:37;96123.50;;;9.66;100.00
62634;BME280;48704;50.534;6.442;2023-02-16T13:58:27;96129.84;;;10.43;100.00
62634;BME280;48704;50.534;6.442;2023-02-16T14:00:53;96127.22;;;10.30;100.00
62634;BME280;48704;50.534;6.442;2023-02-16T14:05:54;96116.22;;;10.45;98.28
62634;BME280;48704;50.534;6.442;2023-02-16T14:08:39;96113.09;;;10.80;96.94
62634;BME280;48704;50.534;6.442;2023-02-16T14:11:06;96115.00;;;10.64;95.61
62634;BME280;48704;50.534;6.442;2023-02-16T14:13:44;96107.72;;;10.58;95.92
62634;BME280;48704;50.534;6.442;2023-02-16T14:19:01;96113.44;;;10.27;99.00
62634;BME280;48704;50.534;6.442;2023-02-16T14:21:47;96101.84;;;10.19;100.00
62634;BME280;48704;50.534;6.442;2023-02-16T14:24:28;96097.97;;;10.26;100.00
62634;BME280;48704;50.534;6.442;2023-02-16T14:27:05;96118.19;;;9.99;100.00
62634;BME280;48704;50.534;6.442;2023-02-16T14:29:35;96117.44;;;10.17;100.00
62634;BME280;48704;50.534;6.442;2023-02-16T14:32:20;96117.47;;;9.58;100.00
62634;BME280;48704;50.534;6.442;2023-02-16T14:34:56;96118.34;;;9.95;100.00
62634;BME280;48704;50.534;6.442;2023-02-16T14:40:12;96115.53;;;9.86;100.00
62634;BME280;48704;50.534;6.442;2023-02-16T14:42:55;96109.31;;;9.82;100.00
62634;BME280;48704;50.534;6.442;2023-02-16T14:48:50;96112.09;;;9.82;100.00
62634;BME280;48704;50.534;6.442;2023-02-16T14:51:41;96122.22;;;9.98;100.00
62634;BME280;48704;50.534;6.442;2023-02-16T14:54:36;96118.00;;;10.02;100.00
62634;BME280;48704;50.534;6.442;2023-02-16T14:57:29;96119.66;;;10.67;100.00
62634;BME280;48704;50.534;6.442;2023-02-16T15:02:40;96119.50;;;10.62;100.00
62634;BME280;48704;50.534;6.442;2023-02-16T15:05:17;96116.88;;;10.31;100.00
62634;BME280;48704;50.534;6.442;2023-02-16T15:07:45;96130.78;;;10.67;100.00
62634;BME280;48704;50.534;6.442;2023-02-16T15:10:15;96097.81;;;10.48;100.00
62634;BME280;48704;50.534;6.442;2023-02-16T15:12:46;96115.63;;;10.23;100.00